Terminal Aerodrome Forecast
Issued by NWS Albany, NY

Home | Current Version | Previous Version | Text Only | Print | Product List | Glossary On
Versions: 1 2 3 4 5 6 7 8 9 10 11 12 13 14 15 16 17 18 19 20 21 22 23 24
000
FTUS41 KALY 022300
TAFPOU
TAF
KPOU 022328Z 0300/0324 20008KT P6SM VCSH SCT050 BKN250
     FM030300 27006KT 6SM -SHRA BR SCT020 OVC050
      TEMPO 0303/0307 1SM TSRA BKN020CB OVC040
     FM030700 28003KT 5SM BR BKN025 BKN250
     FM031200 30006KT P6SM FEW050 SCT250=

USA.gov is the U.S. government's official web portal to all federal, state and local government web resources and services.